Terminal Aerodrome Forecast
Issued by NWS

Current Version | Previous Version | Text Only | Print | Product List | Glossary On
Versions: 1 2 3 4 5 6 7 8 9 10 11 12
000
FTUS44 KLZK 301135
TAFHOT
TAF
KHOT 301135Z 3012/3112 VRB03KT P6SM SCT100 SCT250
      TEMPO 3012/3014 4SM BR
     FM301500 20006KT P6SM SCT050 BKN250
     FM310100 VRB03KT P6SM SCT250=

USA.gov is the U.S. government's official web portal to all federal, state and local government web resources and services.